sensor_id;sensor_type;location;lat;lon;timestamp;P1;durP1;ratioP1;P2;durP2;ratioP2
23714;SDS011;12036;50.858;4.472;2023-07-29T00:01:30;1.35;;;1.00;;
23714;SDS011;12036;50.858;4.472;2023-07-29T00:03:55;2.15;;;1.20;;
23714;SDS011;12036;50.858;4.472;2023-07-29T00:06:21;3.15;;;1.13;;
23714;SDS011;12036;50.858;4.472;2023-07-29T00:08:47;4.10;;;1.10;;
23714;SDS011;12036;50.858;4.472;2023-07-29T00:11:13;0.88;;;0.88;;
23714;SDS011;12036;50.858;4.472;2023-07-29T00:13:38;2.20;;;1.27;;
23714;SDS011;12036;50.858;4.472;2023-07-29T00:16:04;1.20;;;1.10;;
23714;SDS011;12036;50.858;4.472;2023-07-29T00:18:29;3.33;;;1.00;;
23714;SDS011;12036;50.858;4.472;2023-07-29T00:20:56;1.20;;;1.05;;
23714;SDS011;12036;50.858;4.472;2023-07-29T00:23:22;1.65;;;0.95;;
23714;SDS011;12036;50.858;4.472;2023-07-29T00:25:48;1.13;;;0.80;;
23714;SDS011;12036;50.858;4.472;2023-07-29T00:28:14;1.42;;;1.10;;
23714;SDS011;12036;50.858;4.472;2023-07-29T00:30:39;1.00;;;1.00;;
23714;SDS011;12036;50.858;4.472;2023-07-29T00:33:05;1.50;;;0.85;;
23714;SDS011;12036;50.858;4.472;2023-07-29T00:35:30;2.67;;;0.90;;
23714;SDS011;12036;50.858;4.472;2023-07-29T00:37:56;1.85;;;0.90;;
23714;SDS011;12036;50.858;4.472;2023-07-29T00:40:22;5.90;;;1.00;;
23714;SDS011;12036;50.858;4.472;2023-07-29T00:42:48;2.72;;;1.30;;
23714;SDS011;12036;50.858;4.472;2023-07-29T00:45:15;1.45;;;0.80;;
23714;SDS011;12036;50.858;4.472;2023-07-29T00:47:42;1.35;;;1.00;;
23714;SDS011;12036;50.858;4.472;2023-07-29T00:50:09;1.20;;;1.00;;
23714;SDS011;12036;50.858;4.472;2023-07-29T00:52:36;1.25;;;0.90;;
23714;SDS011;12036;50.858;4.472;2023-07-29T00:55:02;4.85;;;0.90;;
23714;SDS011;12036;50.858;4.472;2023-07-29T00:57:28;2.72;;;1.00;;
23714;SDS011;12036;50.858;4.472;2023-07-29T00:59:55;1.90;;;0.98;;
23714;SDS011;12036;50.858;4.472;2023-07-29T01:02:21;2.47;;;1.08;;
23714;SDS011;12036;50.858;4.472;2023-07-29T01:04:51;4.68;;;1.00;;
23714;SDS011;12036;50.858;4.472;2023-07-29T01:07:23;1.85;;;0.90;;
23714;SDS011;12036;50.858;4.472;2023-07-29T01:10:10;1.55;;;0.98;;
23714;SDS011;12036;50.858;4.472;2023-07-29T01:13:04;2.17;;;1.08;;
23714;SDS011;12036;50.858;4.472;2023-07-29T01:15:38;1.42;;;0.95;;
23714;SDS011;12036;50.858;4.472;2023-07-29T01:18:17;2.35;;;0.90;;
23714;SDS011;12036;50.858;4.472;2023-07-29T01:20:47;2.22;;;0.90;;
23714;SDS011;12036;50.858;4.472;2023-07-29T01:23:14;3.15;;;1.00;;
23714;SDS011;12036;50.858;4.472;2023-07-29T01:25:41;1.30;;;1.20;;
23714;SDS011;12036;50.858;4.472;2023-07-29T01:28:07;1.77;;;1.00;;
23714;SDS011;12036;50.858;4.472;2023-07-29T01:30:36;2.13;;;0.85;;
23714;SDS011;12036;50.858;4.472;2023-07-29T01:33:08;1.45;;;1.10;;
23714;SDS011;12036;50.858;4.472;2023-07-29T01:35:57;2.45;;;1.20;;
23714;SDS011;12036;50.858;4.472;2023-07-29T01:38:33;1.48;;;1.00;;
23714;SDS011;12036;50.858;4.472;2023-07-29T01:41:02;3.65;;;1.10;;
23714;SDS011;12036;50.858;4.472;2023-07-29T01:43:31;3.22;;;1.13;;
23714;SDS011;12036;50.858;4.472;2023-07-29T01:45:57;3.08;;;1.20;;
23714;SDS011;12036;50.858;4.472;2023-07-29T01:48:22;1.65;;;1.00;;
23714;SDS011;12036;50.858;4.472;2023-07-29T01:50:48;4.38;;;2.35;;
23714;SDS011;12036;50.858;4.472;2023-07-29T01:53:14;5.25;;;1.15;;
23714;SDS011;12036;50.858;4.472;2023-07-29T01:55:42;2.15;;;1.17;;
23714;SDS011;12036;50.858;4.472;2023-07-29T01:58:10;5.90;;;1.17;;
23714;SDS011;12036;50.858;4.472;2023-07-29T02:00:36;3.25;;;1.15;;
23714;SDS011;12036;50.858;4.472;2023-07-29T02:03:01;1.92;;;0.95;;
23714;SDS011;12036;50.858;4.472;2023-07-29T02:05:27;2.47;;;1.02;;
23714;SDS011;12036;50.858;4.472;2023-07-29T02:07:53;3.13;;;1.35;;
23714;SDS011;12036;50.858;4.472;2023-07-29T02:10:18;5.07;;;1.17;;
23714;SDS011;12036;50.858;4.472;2023-07-29T02:12:44;1.73;;;1.17;;
23714;SDS011;12036;50.858;4.472;2023-07-29T02:15:10;1.40;;;1.05;;
23714;SDS011;12036;50.858;4.472;2023-07-29T02:17:36;2.40;;;1.30;;
23714;SDS011;12036;50.858;4.472;2023-07-29T02:20:02;3.55;;;1.20;;
23714;SDS011;12036;50.858;4.472;2023-07-29T02:22:29;2.03;;;1.10;;
23714;SDS011;12036;50.858;4.472;2023-07-29T02:24:55;2.03;;;1.15;;
23714;SDS011;12036;50.858;4.472;2023-07-29T02:27:20;3.33;;;1.10;;
23714;SDS011;12036;50.858;4.472;2023-07-29T02:29:46;2.92;;;1.30;;
23714;SDS011;12036;50.858;4.472;2023-07-29T02:32:12;1.73;;;1.10;;
23714;SDS011;12036;50.858;4.472;2023-07-29T02:34:37;4.95;;;1.48;;
23714;SDS011;12036;50.858;4.472;2023-07-29T02:37:03;3.03;;;1.20;;
23714;SDS011;12036;50.858;4.472;2023-07-29T02:39:29;4.53;;;1.40;;
23714;SDS011;12036;50.858;4.472;2023-07-29T02:41:55;4.57;;;1.38;;
23714;SDS011;12036;50.858;4.472;2023-07-29T02:44:23;3.88;;;1.27;;
23714;SDS011;12036;50.858;4.472;2023-07-29T02:46:49;2.38;;;1.10;;
23714;SDS011;12036;50.858;4.472;2023-07-29T02:49:14;3.15;;;1.15;;
23714;SDS011;12036;50.858;4.472;2023-07-29T02:51:40;2.58;;;1.30;;
23714;SDS011;12036;50.858;4.472;2023-07-29T02:54:05;3.92;;;1.10;;
23714;SDS011;12036;50.858;4.472;2023-07-29T02:56:34;4.50;;;1.15;;
23714;SDS011;12036;50.858;4.472;2023-07-29T02:59:00;2.95;;;1.20;;
23714;SDS011;12036;50.858;4.472;2023-07-29T03:01:26;2.65;;;1.30;;
23714;SDS011;12036;50.858;4.472;2023-07-29T03:03:52;2.45;;;1.17;;
23714;SDS011;12036;50.858;4.472;2023-07-29T03:06:18;2.42;;;1.20;;
23714;SDS011;12036;50.858;4.472;2023-07-29T03:08:44;2.28;;;1.15;;
23714;SDS011;12036;50.858;4.472;2023-07-29T03:11:10;1.85;;;1.15;;
23714;SDS011;12036;50.858;4.472;2023-07-29T03:13:37;2.75;;;1.00;;
23714;SDS011;12036;50.858;4.472;2023-07-29T03:16:07;1.42;;;1.10;;
23714;SDS011;12036;50.858;4.472;2023-07-29T03:18:33;4.45;;;1.10;;
23714;SDS011;12036;50.858;4.472;2023-07-29T03:20:59;5.57;;;1.33;;
23714;SDS011;12036;50.858;4.472;2023-07-29T03:23:24;2.15;;;1.17;;
23714;SDS011;12036;50.858;4.472;2023-07-29T03:25:50;2.90;;;1.30;;
23714;SDS011;12036;50.858;4.472;2023-07-29T03:28:18;1.38;;;1.13;;
23714;SDS011;12036;50.858;4.472;2023-07-29T03:30:43;7.60;;;1.52;;
23714;SDS011;12036;50.858;4.472;2023-07-29T03:33:09;1.50;;;1.10;;
23714;SDS011;12036;50.858;4.472;2023-07-29T03:35:34;2.47;;;1.20;;
23714;SDS011;12036;50.858;4.472;2023-07-29T03:38:00;1.20;;;0.95;;
23714;SDS011;12036;50.858;4.472;2023-07-29T03:40:26;4.28;;;1.42;;
23714;SDS011;12036;50.858;4.472;2023-07-29T03:42:52;2.45;;;1.25;;
23714;SDS011;12036;50.858;4.472;2023-07-29T03:45:17;2.63;;;1.50;;
23714;SDS011;12036;50.858;4.472;2023-07-29T03:47:43;1.33;;;1.00;;
23714;SDS011;12036;50.858;4.472;2023-07-29T03:50:08;2.10;;;1.38;;
23714;SDS011;12036;50.858;4.472;2023-07-29T03:52:34;1.70;;;1.20;;
23714;SDS011;12036;50.858;4.472;2023-07-29T03:55:00;3.47;;;1.40;;
23714;SDS011;12036;50.858;4.472;2023-07-29T03:57:25;4.88;;;1.08;;
23714;SDS011;12036;50.858;4.472;2023-07-29T03:59:51;2.20;;;1.35;;
23714;SDS011;12036;50.858;4.472;2023-07-29T04:02:17;2.33;;;1.20;;
23714;SDS011;12036;50.858;4.472;2023-07-29T04:04:42;3.10;;;1.42;;
23714;SDS011;12036;50.858;4.472;2023-07-29T04:07:12;3.40;;;1.40;;
23714;SDS011;12036;50.858;4.472;2023-07-29T04:09:38;3.03;;;1.35;;
23714;SDS011;12036;50.858;4.472;2023-07-29T04:12:03;4.80;;;1.27;;
23714;SDS011;12036;50.858;4.472;2023-07-29T04:14:29;4.55;;;1.35;;
23714;SDS011;12036;50.858;4.472;2023-07-29T04:16:55;4.05;;;1.23;;
23714;SDS011;12036;50.858;4.472;2023-07-29T04:19:21;4.47;;;1.77;;
23714;SDS011;12036;50.858;4.472;2023-07-29T04:21:47;4.15;;;1.48;;
23714;SDS011;12036;50.858;4.472;2023-07-29T04:24:12;3.53;;;1.42;;
23714;SDS011;12036;50.858;4.472;2023-07-29T04:26:38;3.88;;;1.40;;
23714;SDS011;12036;50.858;4.472;2023-07-29T04:29:04;3.33;;;1.70;;
23714;SDS011;12036;50.858;4.472;2023-07-29T04:31:30;2.58;;;1.40;;
23714;SDS011;12036;50.858;4.472;2023-07-29T04:33:55;3.10;;;1.27;;
23714;SDS011;12036;50.858;4.472;2023-07-29T04:36:21;2.63;;;1.25;;
23714;SDS011;12036;50.858;4.472;2023-07-29T04:38:47;3.90;;;1.50;;
23714;SDS011;12036;50.858;4.472;2023-07-29T04:41:12;1.27;;;1.05;;
23714;SDS011;12036;50.858;4.472;2023-07-29T04:43:38;3.30;;;1.25;;
23714;SDS011;12036;50.858;4.472;2023-07-29T04:46:06;2.35;;;1.02;;
23714;SDS011;12036;50.858;4.472;2023-07-29T04:48:33;3.53;;;1.10;;
23714;SDS011;12036;50.858;4.472;2023-07-29T04:50:59;5.00;;;1.48;;
23714;SDS011;12036;50.858;4.472;2023-07-29T04:53:24;1.65;;;1.00;;
23714;SDS011;12036;50.858;4.472;2023-07-29T04:55:50;2.78;;;1.10;;
23714;SDS011;12036;50.858;4.472;2023-07-29T04:58:16;1.63;;;1.20;;
23714;SDS011;12036;50.858;4.472;2023-07-29T05:00:41;2.85;;;1.25;;
23714;SDS011;12036;50.858;4.472;2023-07-29T05:03:07;2.60;;;1.15;;
23714;SDS011;12036;50.858;4.472;2023-07-29T05:05:33;4.38;;;1.30;;
23714;SDS011;12036;50.858;4.472;2023-07-29T05:07:58;2.20;;;1.15;;
23714;SDS011;12036;50.858;4.472;2023-07-29T05:10:24;2.58;;;1.13;;
23714;SDS011;12036;50.858;4.472;2023-07-29T05:12:49;2.55;;;1.05;;
23714;SDS011;12036;50.858;4.472;2023-07-29T05:15:15;2.70;;;1.40;;
23714;SDS011;12036;50.858;4.472;2023-07-29T05:17:41;2.75;;;1.13;;
23714;SDS011;12036;50.858;4.472;2023-07-29T05:20:07;1.58;;;1.10;;
23714;SDS011;12036;50.858;4.472;2023-07-29T05:22:33;1.95;;;1.40;;
23714;SDS011;12036;50.858;4.472;2023-07-29T05:24:59;1.35;;;1.02;;
23714;SDS011;12036;50.858;4.472;2023-07-29T05:27:24;2.58;;;1.20;;
23714;SDS011;12036;50.858;4.472;2023-07-29T05:29:50;4.55;;;1.73;;
23714;SDS011;12036;50.858;4.472;2023-07-29T05:32:16;2.78;;;1.00;;
23714;SDS011;12036;50.858;4.472;2023-07-29T05:34:41;1.83;;;1.10;;
23714;SDS011;12036;50.858;4.472;2023-07-29T05:37:07;1.58;;;1.00;;
23714;SDS011;12036;50.858;4.472;2023-07-29T05:39:32;1.45;;;0.88;;
23714;SDS011;12036;50.858;4.472;2023-07-29T05:41:58;2.35;;;0.90;;
23714;SDS011;12036;50.858;4.472;2023-07-29T05:44:27;1.50;;;1.00;;
23714;SDS011;12036;50.858;4.472;2023-07-29T05:46:53;2.97;;;1.00;;
23714;SDS011;12036;50.858;4.472;2023-07-29T05:49:18;2.17;;;1.35;;
23714;SDS011;12036;50.858;4.472;2023-07-29T05:51:44;1.70;;;1.10;;
23714;SDS011;12036;50.858;4.472;2023-07-29T05:54:10;5.45;;;0.93;;
23714;SDS011;12036;50.858;4.472;2023-07-29T05:56:35;1.65;;;0.80;;
23714;SDS011;12036;50.858;4.472;2023-07-29T05:59:01;3.95;;;0.98;;
23714;SDS011;12036;50.858;4.472;2023-07-29T06:01:26;3.22;;;0.90;;
23714;SDS011;12036;50.858;4.472;2023-07-29T06:03:52;2.42;;;0.90;;
23714;SDS011;12036;50.858;4.472;2023-07-29T06:06:18;0.98;;;0.88;;
23714;SDS011;12036;50.858;4.472;2023-07-29T06:08:43;1.23;;;0.88;;
23714;SDS011;12036;50.858;4.472;2023-07-29T06:11:09;3.55;;;1.00;;
23714;SDS011;12036;50.858;4.472;2023-07-29T06:13:35;1.67;;;0.90;;
23714;SDS011;12036;50.858;4.472;2023-07-29T06:16:00;1.20;;;1.00;;
23714;SDS011;12036;50.858;4.472;2023-07-29T06:18:26;2.58;;;0.90;;
23714;SDS011;12036;50.858;4.472;2023-07-29T06:20:51;2.63;;;1.02;;
23714;SDS011;12036;50.858;4.472;2023-07-29T06:23:17;2.33;;;0.82;;
23714;SDS011;12036;50.858;4.472;2023-07-29T06:25:43;2.33;;;0.73;;
23714;SDS011;12036;50.858;4.472;2023-07-29T06:28:09;1.52;;;0.80;;
23714;SDS011;12036;50.858;4.472;2023-07-29T06:30:34;0.90;;;0.73;;
23714;SDS011;12036;50.858;4.472;2023-07-29T06:33:01;1.02;;;0.70;;
23714;SDS011;12036;50.858;4.472;2023-07-29T06:35:28;1.58;;;0.82;;
23714;SDS011;12036;50.858;4.472;2023-07-29T06:37:54;1.15;;;0.90;;
23714;SDS011;12036;50.858;4.472;2023-07-29T06:40:19;2.35;;;0.90;;
23714;SDS011;12036;50.858;4.472;2023-07-29T06:42:45;4.95;;;1.08;;
23714;SDS011;12036;50.858;4.472;2023-07-29T06:45:11;1.30;;;0.82;;
23714;SDS011;12036;50.858;4.472;2023-07-29T06:47:37;1.30;;;0.90;;
23714;SDS011;12036;50.858;4.472;2023-07-29T06:50:03;1.00;;;0.90;;
23714;SDS011;12036;50.858;4.472;2023-07-29T06:52:29;0.70;;;0.70;;
23714;SDS011;12036;50.858;4.472;2023-07-29T06:54:54;1.77;;;0.90;;
23714;SDS011;12036;50.858;4.472;2023-07-29T06:57:20;3.78;;;0.80;;
23714;SDS011;12036;50.858;4.472;2023-07-29T06:59:45;1.15;;;0.85;;
23714;SDS011;12036;50.858;4.472;2023-07-29T07:02:11;2.38;;;0.73;;
23714;SDS011;12036;50.858;4.472;2023-07-29T07:04:37;1.00;;;0.80;;
23714;SDS011;12036;50.858;4.472;2023-07-29T07:07:02;2.05;;;0.70;;
23714;SDS011;12036;50.858;4.472;2023-07-29T07:09:28;1.30;;;0.75;;
23714;SDS011;12036;50.858;4.472;2023-07-29T07:11:54;0.70;;;0.68;;
23714;SDS011;12036;50.858;4.472;2023-07-29T07:14:19;1.83;;;0.88;;
23714;SDS011;12036;50.858;4.472;2023-07-29T07:16:45;1.67;;;0.80;;
23714;SDS011;12036;50.858;4.472;2023-07-29T07:19:11;1.33;;;0.90;;
23714;SDS011;12036;50.858;4.472;2023-07-29T07:21:36;1.33;;;0.73;;
23714;SDS011;12036;50.858;4.472;2023-07-29T07:24:02;1.42;;;0.70;;
23714;SDS011;12036;50.858;4.472;2023-07-29T07:26:27;4.38;;;0.70;;
23714;SDS011;12036;50.858;4.472;2023-07-29T07:28:53;3.38;;;0.70;;
23714;SDS011;12036;50.858;4.472;2023-07-29T07:31:19;5.35;;;0.80;;
23714;SDS011;12036;50.858;4.472;2023-07-29T07:33:44;1.48;;;0.70;;
23714;SDS011;12036;50.858;4.472;2023-07-29T07:36:10;1.58;;;0.88;;
23714;SDS011;12036;50.858;4.472;2023-07-29T07:38:36;2.53;;;0.70;;
23714;SDS011;12036;50.858;4.472;2023-07-29T07:41:01;0.98;;;0.77;;
23714;SDS011;12036;50.858;4.472;2023-07-29T07:43:27;1.88;;;1.08;;
23714;SDS011;12036;50.858;4.472;2023-07-29T07:45:59;1.30;;;0.80;;
23714;SDS011;12036;50.858;4.472;2023-07-29T07:48:27;1.23;;;0.80;;
23714;SDS011;12036;50.858;4.472;2023-07-29T07:50:53;1.60;;;0.90;;
23714;SDS011;12036;50.858;4.472;2023-07-29T07:53:18;4.32;;;1.33;;
23714;SDS011;12036;50.858;4.472;2023-07-29T07:55:45;1.58;;;0.80;;
23714;SDS011;12036;50.858;4.472;2023-07-29T07:58:11;1.25;;;0.80;;
23714;SDS011;12036;50.858;4.472;2023-07-29T08:00:37;2.60;;;0.82;;
23714;SDS011;12036;50.858;4.472;2023-07-29T08:03:03;1.13;;;0.70;;
23714;SDS011;12036;50.858;4.472;2023-07-29T08:05:28;2.22;;;1.10;;
23714;SDS011;12036;50.858;4.472;2023-07-29T08:07:54;3.15;;;0.70;;
23714;SDS011;12036;50.858;4.472;2023-07-29T08:10:20;1.38;;;0.80;;
23714;SDS011;12036;50.858;4.472;2023-07-29T08:12:45;4.50;;;0.90;;
23714;SDS011;12036;50.858;4.472;2023-07-29T08:15:11;2.30;;;0.80;;
23714;SDS011;12036;50.858;4.472;2023-07-29T08:17:36;1.73;;;0.68;;
23714;SDS011;12036;50.858;4.472;2023-07-29T08:20:02;1.85;;;0.80;;
23714;SDS011;12036;50.858;4.472;2023-07-29T08:22:28;1.83;;;0.60;;
23714;SDS011;12036;50.858;4.472;2023-07-29T08:24:54;1.15;;;0.80;;
23714;SDS011;12036;50.858;4.472;2023-07-29T08:27:19;1.48;;;0.70;;
23714;SDS011;12036;50.858;4.472;2023-07-29T08:29:45;2.78;;;0.80;;
23714;SDS011;12036;50.858;4.472;2023-07-29T08:32:11;1.05;;;0.70;;
23714;SDS011;12036;50.858;4.472;2023-07-29T08:34:36;0.70;;;0.60;;
23714;SDS011;12036;50.858;4.472;2023-07-29T08:37:02;2.10;;;0.80;;
23714;SDS011;12036;50.858;4.472;2023-07-29T08:39:27;1.67;;;0.70;;
23714;SDS011;12036;50.858;4.472;2023-07-29T08:42:07;1.02;;;0.80;;
23714;SDS011;12036;50.858;4.472;2023-07-29T08:44:36;0.75;;;0.65;;
23714;SDS011;12036;50.858;4.472;2023-07-29T08:47:06;2.58;;;0.63;;
23714;SDS011;12036;50.858;4.472;2023-07-29T08:49:32;1.20;;;0.77;;
23714;SDS011;12036;50.858;4.472;2023-07-29T08:51:59;0.85;;;0.60;;
23714;SDS011;12036;50.858;4.472;2023-07-29T08:54:26;2.85;;;0.88;;
23714;SDS011;12036;50.858;4.472;2023-07-29T08:56:52;2.15;;;0.60;;
23714;SDS011;12036;50.858;4.472;2023-07-29T08:59:18;1.77;;;1.00;;
23714;SDS011;12036;50.858;4.472;2023-07-29T09:01:44;0.85;;;0.70;;
23714;SDS011;12036;50.858;4.472;2023-07-29T09:04:10;1.05;;;0.93;;
23714;SDS011;12036;50.858;4.472;2023-07-29T09:06:37;2.00;;;0.80;;
23714;SDS011;12036;50.858;4.472;2023-07-29T09:09:04;1.98;;;0.80;;
23714;SDS011;12036;50.858;4.472;2023-07-29T09:11:30;3.75;;;0.90;;
23714;SDS011;12036;50.858;4.472;2023-07-29T09:13:57;2.45;;;1.02;;
23714;SDS011;12036;50.858;4.472;2023-07-29T09:16:23;1.00;;;0.80;;
23714;SDS011;12036;50.858;4.472;2023-07-29T09:18:50;4.50;;;0.98;;
23714;SDS011;12036;50.858;4.472;2023-07-29T09:21:22;1.23;;;0.93;;
23714;SDS011;12036;50.858;4.472;2023-07-29T09:23:50;3.03;;;1.20;;
23714;SDS011;12036;50.858;4.472;2023-07-29T09:26:25;2.65;;;1.00;;
23714;SDS011;12036;50.858;4.472;2023-07-29T09:28:56;1.75;;;0.90;;
23714;SDS011;12036;50.858;4.472;2023-07-29T09:31:23;1.27;;;0.93;;
23714;SDS011;12036;50.858;4.472;2023-07-29T09:33:55;1.10;;;0.82;;
23714;SDS011;12036;50.858;4.472;2023-07-29T09:36:25;1.80;;;1.10;;
23714;SDS011;12036;50.858;4.472;2023-07-29T09:38:52;1.88;;;1.10;;
23714;SDS011;12036;50.858;4.472;2023-07-29T09:41:20;1.10;;;0.95;;
23714;SDS011;12036;50.858;4.472;2023-07-29T09:43:48;1.10;;;0.80;;
23714;SDS011;12036;50.858;4.472;2023-07-29T09:46:24;1.63;;;1.05;;
23714;SDS011;12036;50.858;4.472;2023-07-29T09:48:56;1.90;;;0.80;;
23714;SDS011;12036;50.858;4.472;2023-07-29T09:51:22;1.20;;;1.00;;
23714;SDS011;12036;50.858;4.472;2023-07-29T09:53:49;2.55;;;0.90;;
23714;SDS011;12036;50.858;4.472;2023-07-29T09:56:16;1.25;;;1.00;;
23714;SDS011;12036;50.858;4.472;2023-07-29T09:58:42;1.30;;;0.90;;
23714;SDS011;12036;50.858;4.472;2023-07-29T10:01:10;1.55;;;0.90;;
23714;SDS011;12036;50.858;4.472;2023-07-29T10:03:36;1.40;;;0.90;;
23714;SDS011;12036;50.858;4.472;2023-07-29T10:06:03;2.05;;;1.10;;
23714;SDS011;12036;50.858;4.472;2023-07-29T10:08:30;1.52;;;1.10;;
23714;SDS011;12036;50.858;4.472;2023-07-29T10:11:06;1.10;;;0.93;;
23714;SDS011;12036;50.858;4.472;2023-07-29T10:13:32;1.23;;;0.88;;
23714;SDS011;12036;50.858;4.472;2023-07-29T10:15:59;2.25;;;0.82;;
23714;SDS011;12036;50.858;4.472;2023-07-29T10:18:27;3.50;;;1.00;;
23714;SDS011;12036;50.858;4.472;2023-07-29T10:20:53;2.45;;;0.70;;
23714;SDS011;12036;50.858;4.472;2023-07-29T10:23:21;1.13;;;0.90;;
23714;SDS011;12036;50.858;4.472;2023-07-29T10:26:10;1.35;;;1.13;;
23714;SDS011;12036;50.858;4.472;2023-07-29T10:28:36;4.60;;;0.85;;
23714;SDS011;12036;50.858;4.472;2023-07-29T10:31:05;3.03;;;0.80;;
23714;SDS011;12036;50.858;4.472;2023-07-29T10:33:32;1.58;;;1.02;;
23714;SDS011;12036;50.858;4.472;2023-07-29T10:35:59;1.02;;;0.82;;
23714;SDS011;12036;50.858;4.472;2023-07-29T10:38:25;2.03;;;0.80;;
23714;SDS011;12036;50.858;4.472;2023-07-29T10:40:51;2.88;;;1.10;;
23714;SDS011;12036;50.858;4.472;2023-07-29T10:45:58;2.63;;;1.52;;
23714;SDS011;12036;50.858;4.472;2023-07-29T10:48:44;2.15;;;1.50;;
23714;SDS011;12036;50.858;4.472;2023-07-29T10:51:29;1.70;;;1.35;;
23714;SDS011;12036;50.858;4.472;2023-07-29T10:54:04;2.47;;;1.27;;
23714;SDS011;12036;50.858;4.472;2023-07-29T10:56:36;2.63;;;1.55;;
23714;SDS011;12036;50.858;4.472;2023-07-29T11:01:37;1.67;;;1.27;;
23714;SDS011;12036;50.858;4.472;2023-07-29T11:10:15;2.50;;;1.45;;
23714;SDS011;12036;50.858;4.472;2023-07-29T11:15:33;2.03;;;1.70;;
23714;SDS011;12036;50.858;4.472;2023-07-29T11:18:00;2.38;;;2.00;;
23714;SDS011;12036;50.858;4.472;2023-07-29T11:20:27;2.97;;;1.98;;
23714;SDS011;12036;50.858;4.472;2023-07-29T11:22:55;4.93;;;2.17;;
23714;SDS011;12036;50.858;4.472;2023-07-29T11:25:23;3.63;;;2.00;;
23714;SDS011;12036;50.858;4.472;2023-07-29T11:27:53;3.08;;;1.98;;
23714;SDS011;12036;50.858;4.472;2023-07-29T11:30:20;2.33;;;2.13;;
23714;SDS011;12036;50.858;4.472;2023-07-29T11:32:48;4.35;;;2.00;;
23714;SDS011;12036;50.858;4.472;2023-07-29T11:35:15;1.58;;;1.48;;
23714;SDS011;12036;50.858;4.472;2023-07-29T11:37:45;2.28;;;1.88;;
23714;SDS011;12036;50.858;4.472;2023-07-29T11:40:15;1.50;;;1.40;;
23714;SDS011;12036;50.858;4.472;2023-07-29T11:42:42;3.35;;;1.60;;
23714;SDS011;12036;50.858;4.472;2023-07-29T11:45:08;1.67;;;1.38;;
23714;SDS011;12036;50.858;4.472;2023-07-29T11:47:34;1.92;;;1.52;;
23714;SDS011;12036;50.858;4.472;2023-07-29T11:50:02;1.75;;;1.35;;
23714;SDS011;12036;50.858;4.472;2023-07-29T11:52:30;2.28;;;1.40;;
23714;SDS011;12036;50.858;4.472;2023-07-29T11:54:56;3.38;;;1.35;;
23714;SDS011;12036;50.858;4.472;2023-07-29T11:57:23;5.28;;;1.42;;
23714;SDS011;12036;50.858;4.472;2023-07-29T11:59:49;4.78;;;1.38;;
23714;SDS011;12036;50.858;4.472;2023-07-29T12:02:16;1.90;;;1.42;;
23714;SDS011;12036;50.858;4.472;2023-07-29T12:04:44;1.27;;;1.17;;
23714;SDS011;12036;50.858;4.472;2023-07-29T12:07:12;1.40;;;1.20;;
23714;SDS011;12036;50.858;4.472;2023-07-29T12:09:39;1.50;;;1.40;;
23714;SDS011;12036;50.858;4.472;2023-07-29T12:12:06;3.72;;;1.40;;
23714;SDS011;12036;50.858;4.472;2023-07-29T12:14:32;2.15;;;1.50;;
23714;SDS011;12036;50.858;4.472;2023-07-29T12:16:59;2.00;;;1.30;;
23714;SDS011;12036;50.858;4.472;2023-07-29T12:19:33;2.92;;;1.55;;
23714;SDS011;12036;50.858;4.472;2023-07-29T12:22:04;1.70;;;1.60;;
23714;SDS011;12036;50.858;4.472;2023-07-29T12:24:30;2.10;;;1.73;;
23714;SDS011;12036;50.858;4.472;2023-07-29T12:26:57;2.03;;;1.73;;
23714;SDS011;12036;50.858;4.472;2023-07-29T12:29:23;3.35;;;2.15;;
23714;SDS011;12036;50.858;4.472;2023-07-29T12:31:49;2.40;;;2.20;;
23714;SDS011;12036;50.858;4.472;2023-07-29T12:34:26;2.30;;;2.10;;
23714;SDS011;12036;50.858;4.472;2023-07-29T12:36:53;2.50;;;2.30;;
23714;SDS011;12036;50.858;4.472;2023-07-29T12:39:27;3.65;;;2.33;;
23714;SDS011;12036;50.858;4.472;2023-07-29T12:41:55;2.53;;;2.33;;
23714;SDS011;12036;50.858;4.472;2023-07-29T12:44:23;3.33;;;2.10;;
23714;SDS011;12036;50.858;4.472;2023-07-29T12:46:49;3.63;;;2.30;;
23714;SDS011;12036;50.858;4.472;2023-07-29T12:49:16;3.53;;;2.33;;
23714;SDS011;12036;50.858;4.472;2023-07-29T12:51:41;2.78;;;2.22;;
23714;SDS011;12036;50.858;4.472;2023-07-29T12:54:08;3.38;;;2.13;;
23714;SDS011;12036;50.858;4.472;2023-07-29T12:56:34;2.92;;;2.10;;
23714;SDS011;12036;50.858;4.472;2023-07-29T12:59:00;3.22;;;2.30;;
23714;SDS011;12036;50.858;4.472;2023-07-29T13:01:26;2.90;;;2.20;;
23714;SDS011;12036;50.858;4.472;2023-07-29T13:03:53;2.17;;;2.00;;
23714;SDS011;12036;50.858;4.472;2023-07-29T13:06:19;3.92;;;2.20;;
23714;SDS011;12036;50.858;4.472;2023-07-29T13:08:45;2.38;;;2.03;;
23714;SDS011;12036;50.858;4.472;2023-07-29T13:11:11;2.22;;;1.83;;
23714;SDS011;12036;50.858;4.472;2023-07-29T13:13:37;2.20;;;2.00;;
23714;SDS011;12036;50.858;4.472;2023-07-29T13:16:03;1.48;;;1.38;;
23714;SDS011;12036;50.858;4.472;2023-07-29T13:18:28;2.20;;;1.70;;
23714;SDS011;12036;50.858;4.472;2023-07-29T13:20:54;1.92;;;1.60;;
23714;SDS011;12036;50.858;4.472;2023-07-29T13:23:20;1.70;;;1.60;;
23714;SDS011;12036;50.858;4.472;2023-07-29T13:25:46;2.22;;;1.80;;
23714;SDS011;12036;50.858;4.472;2023-07-29T13:28:12;2.00;;;1.80;;
23714;SDS011;12036;50.858;4.472;2023-07-29T13:30:41;2.00;;;1.50;;
23714;SDS011;12036;50.858;4.472;2023-07-29T13:33:07;1.60;;;1.50;;
23714;SDS011;12036;50.858;4.472;2023-07-29T13:35:33;2.78;;;1.30;;
23714;SDS011;12036;50.858;4.472;2023-07-29T13:37:59;1.75;;;1.63;;
23714;SDS011;12036;50.858;4.472;2023-07-29T13:40:25;1.73;;;1.63;;
23714;SDS011;12036;50.858;4.472;2023-07-29T13:42:50;1.52;;;1.40;;
23714;SDS011;12036;50.858;4.472;2023-07-29T13:45:17;1.63;;;1.20;;
23714;SDS011;12036;50.858;4.472;2023-07-29T13:47:43;2.25;;;1.30;;
23714;SDS011;12036;50.858;4.472;2023-07-29T13:50:09;1.70;;;1.33;;
23714;SDS011;12036;50.858;4.472;2023-07-29T13:52:35;1.45;;;1.27;;
23714;SDS011;12036;50.858;4.472;2023-07-29T13:55:02;2.03;;;1.10;;
23714;SDS011;12036;50.858;4.472;2023-07-29T13:57:31;1.52;;;1.13;;
23714;SDS011;12036;50.858;4.472;2023-07-29T13:59:57;1.58;;;1.20;;
23714;SDS011;12036;50.858;4.472;2023-07-29T14:02:23;1.40;;;1.30;;
23714;SDS011;12036;50.858;4.472;2023-07-29T14:04:49;1.20;;;1.10;;
23714;SDS011;12036;50.858;4.472;2023-07-29T14:07:14;0.98;;;0.90;;
23714;SDS011;12036;50.858;4.472;2023-07-29T14:09:40;1.92;;;0.98;;
23714;SDS011;12036;50.858;4.472;2023-07-29T14:12:07;2.05;;;1.10;;
23714;SDS011;12036;50.858;4.472;2023-07-29T14:14:37;1.63;;;1.00;;
23714;SDS011;12036;50.858;4.472;2023-07-29T14:17:03;0.93;;;0.80;;
23714;SDS011;12036;50.858;4.472;2023-07-29T14:19:29;1.52;;;1.02;;
23714;SDS011;12036;50.858;4.472;2023-07-29T14:21:54;1.10;;;1.00;;
23714;SDS011;12036;50.858;4.472;2023-07-29T14:24:20;1.67;;;0.90;;
23714;SDS011;12036;50.858;4.472;2023-07-29T14:26:47;1.10;;;0.85;;
23714;SDS011;12036;50.858;4.472;2023-07-29T14:29:13;0.65;;;0.65;;
23714;SDS011;12036;50.858;4.472;2023-07-29T14:31:39;1.42;;;0.80;;
23714;SDS011;12036;50.858;4.472;2023-07-29T14:34:04;0.85;;;0.85;;
23714;SDS011;12036;50.858;4.472;2023-07-29T14:36:30;1.00;;;0.85;;
23714;SDS011;12036;50.858;4.472;2023-07-29T14:38:55;1.13;;;0.80;;
23714;SDS011;12036;50.858;4.472;2023-07-29T14:41:21;0.80;;;0.80;;
23714;SDS011;12036;50.858;4.472;2023-07-29T14:43:47;2.45;;;0.90;;
23714;SDS011;12036;50.858;4.472;2023-07-29T14:46:13;0.77;;;0.65;;
23714;SDS011;12036;50.858;4.472;2023-07-29T14:48:38;1.63;;;1.08;;
23714;SDS011;12036;50.858;4.472;2023-07-29T14:51:04;1.35;;;1.00;;
23714;SDS011;12036;50.858;4.472;2023-07-29T14:53:29;1.15;;;0.80;;
23714;SDS011;12036;50.858;4.472;2023-07-29T14:55:55;1.52;;;0.90;;
23714;SDS011;12036;50.858;4.472;2023-07-29T14:58:20;0.85;;;0.82;;
23714;SDS011;12036;50.858;4.472;2023-07-29T15:00:46;0.98;;;0.90;;